METAR Data
IDs: Format: Raw Decoded Include TAF

Data at: 2054 UTC 01 Dec 2021

METAR for:KTZR (Columbus/Bolton Fld, OH, US)
Text:KTZR 012050Z 12006KT 5SM BR SCT006 BKN065 OVC110 06/06 A2992
Temperature: 6.0°C ( 43°F)
Dewpoint: 6.0°C ( 43°F) [RH = 100%]
Pressure (altimeter):29.92 inches Hg (1013.3 mb)
Winds:from the ESE (120 degrees) at 7 MPH (6 knots; 3.1 m/s)
Visibility: 5 sm ( 8 km)
Ceiling:6500 feet AGL
Clouds: scattered clouds at 600 feet AGL, broken clouds at 6500 feet AGL, overcast cloud deck at 11000 feet AGL
Weather:BR (mist)